logo
Search for airport 
image banner adimage banner adimage banner ad
image banner ad

EYIG - Ignalina

Located in Ignalina, Lithuania

ICAO - , IATA -

Data provided by Airmate  

General information

Coordinates: N55°14'39" E26°10'20"
Elevation is 558 feet MSL.
Magnetic variation is 8° East
View others Airports in Utena County

Operational data

Special qualification required
Current time UTC:
Current local time:
Weather at : - ( 0 km )
METAR: KDVP 170613Z AUTO 33006KT 5SM BR SCT002 BKN021 OVC029 09/08 A2943 RMK AO2 T00870080
View NOTAMs / SUP AIP / TFR affecting this airport [VIEW]
Communications frequencies: [VIEW]

Runways:

RWY identifierQFULength (ft)Width (ft)SurfaceLDA (ft)
0782°1969131GRASS
25262°1969131GRASS

Airport contact information

Address: Ignalina Lithuania

Satellite view of EYIG